Terminal Aerodrome Forecast
Issued by NWS Pendleton, OR

Home | Current Version | Previous Version | Text Only | Print | Product List | Glossary On
Versions: 1 2 3 4 5 6 7 8 9 10 11 12 13 14 15 16
000
FTUS46 KPDT 302025 AAB
TAFPDT
TAF AMD
KPDT 302025Z 3020/3118 29012KT P6SM VCSH SCT050 BKN060
     FM302100 28020G30KT P6SM VCSH BKN060
     FM310300 27015KT P6SM SCT060
     FM311000 27011KT P6SM SCT080
     FM311500 26005KT P6SM FEW040=

USA.gov is the U.S. government's official web portal to all federal, state and local government web resources and services.